sensor_id;sensor_type;location;lat;lon;timestamp;pressure;altitude;pressure_sealevel;temperature;humidity
4570;BME280;2297;51.442;6.996;2023-07-20T00:01:49;100119.50;;;19.41;52.60
4570;BME280;2297;51.442;6.996;2023-07-20T00:04:16;100115.03;;;19.56;52.31
4570;BME280;2297;51.442;6.996;2023-07-20T00:06:42;100124.78;;;19.57;52.31
4570;BME280;2297;51.442;6.996;2023-07-20T00:09:09;100122.88;;;19.59;52.54
4570;BME280;2297;51.442;6.996;2023-07-20T00:11:37;100116.56;;;19.60;52.45
4570;BME280;2297;51.442;6.996;2023-07-20T00:14:05;100113.47;;;19.66;52.56
4570;BME280;2297;51.442;6.996;2023-07-20T00:16:32;100114.16;;;19.70;52.29
4570;BME280;2297;51.442;6.996;2023-07-20T00:18:58;100115.59;;;19.32;53.41
4570;BME280;2297;51.442;6.996;2023-07-20T00:21:25;100115.22;;;19.53;53.11
4570;BME280;2297;51.442;6.996;2023-07-20T00:23:52;100112.16;;;19.59;52.87
4570;BME280;2297;51.442;6.996;2023-07-20T00:26:18;100116.66;;;19.58;53.35
4570;BME280;2297;51.442;6.996;2023-07-20T00:28:49;100107.00;;;19.56;53.22
4570;BME280;2297;51.442;6.996;2023-07-20T00:31:16;100108.31;;;19.49;53.35
4570;BME280;2297;51.442;6.996;2023-07-20T00:33:43;100109.47;;;19.44;53.57
4570;BME280;2297;51.442;6.996;2023-07-20T00:36:10;100101.22;;;19.48;53.29
4570;BME280;2297;51.442;6.996;2023-07-20T00:38:36;100103.44;;;19.41;53.66
4570;BME280;2297;51.442;6.996;2023-07-20T00:41:03;100100.66;;;19.42;53.66
4570;BME280;2297;51.442;6.996;2023-07-20T00:43:30;100095.31;;;19.42;53.75
4570;BME280;2297;51.442;6.996;2023-07-20T00:45:58;100102.38;;;19.29;54.18
4570;BME280;2297;51.442;6.996;2023-07-20T00:48:25;100094.72;;;19.23;54.15
4570;BME280;2297;51.442;6.996;2023-07-20T00:50:52;100098.34;;;19.22;54.41
4570;BME280;2297;51.442;6.996;2023-07-20T00:53:18;100096.63;;;19.21;54.62
4570;BME280;2297;51.442;6.996;2023-07-20T00:55:45;100099.41;;;19.19;54.36
4570;BME280;2297;51.442;6.996;2023-07-20T00:58:12;100098.25;;;19.23;54.56
4570;BME280;2297;51.442;6.996;2023-07-20T01:00:39;100101.41;;;19.30;54.37
4570;BME280;2297;51.442;6.996;2023-07-20T01:03:07;100100.47;;;19.31;54.63
4570;BME280;2297;51.442;6.996;2023-07-20T01:05:40;100103.44;;;19.41;54.21
4570;BME280;2297;51.442;6.996;2023-07-20T01:08:12;100102.78;;;19.37;54.10
4570;BME280;2297;51.442;6.996;2023-07-20T01:10:44;100104.69;;;19.35;54.22
4570;BME280;2297;51.442;6.996;2023-07-20T01:13:14;100101.63;;;19.27;54.34
4570;BME280;2297;51.442;6.996;2023-07-20T01:15:41;100097.31;;;19.24;54.61
4570;BME280;2297;51.442;6.996;2023-07-20T01:18:29;100092.38;;;19.17;54.87
4570;BME280;2297;51.442;6.996;2023-07-20T01:20:59;100092.34;;;19.02;55.27
4570;BME280;2297;51.442;6.996;2023-07-20T01:23:45;100091.22;;;19.06;55.30
4570;BME280;2297;51.442;6.996;2023-07-20T01:26:33;100099.22;;;19.06;55.27
4570;BME280;2297;51.442;6.996;2023-07-20T01:29:13;100096.16;;;18.98;55.35
4570;BME280;2297;51.442;6.996;2023-07-20T01:31:47;100098.66;;;19.01;55.26
4570;BME280;2297;51.442;6.996;2023-07-20T01:34:17;100093.13;;;19.04;55.14
4570;BME280;2297;51.442;6.996;2023-07-20T01:36:46;100096.56;;;19.06;55.06
4570;BME280;2297;51.442;6.996;2023-07-20T01:39:14;100097.41;;;18.92;55.39
4570;BME280;2297;51.442;6.996;2023-07-20T01:41:41;100097.19;;;18.95;55.23
4570;BME280;2297;51.442;6.996;2023-07-20T01:44:08;100090.50;;;18.88;55.44
4570;BME280;2297;51.442;6.996;2023-07-20T01:46:35;100094.56;;;18.79;55.87
4570;BME280;2297;51.442;6.996;2023-07-20T01:49:03;100091.66;;;18.84;55.91
4570;BME280;2297;51.442;6.996;2023-07-20T01:51:29;100094.78;;;18.76;56.14
4570;BME280;2297;51.442;6.996;2023-07-20T01:53:55;100095.16;;;18.85;55.83
4570;BME280;2297;51.442;6.996;2023-07-20T01:56:22;100092.78;;;18.64;57.00
4570;BME280;2297;51.442;6.996;2023-07-20T01:58:48;100088.94;;;18.54;58.24
4570;BME280;2297;51.442;6.996;2023-07-20T02:01:15;100091.19;;;18.45;58.74
4570;BME280;2297;51.442;6.996;2023-07-20T02:03:41;100084.16;;;18.43;59.56
4570;BME280;2297;51.442;6.996;2023-07-20T02:06:09;100081.97;;;18.51;59.84
4570;BME280;2297;51.442;6.996;2023-07-20T02:08:36;100076.25;;;18.41;60.19
4570;BME280;2297;51.442;6.996;2023-07-20T02:11:03;100083.72;;;18.67;59.77
4570;BME280;2297;51.442;6.996;2023-07-20T02:13:30;100086.72;;;18.46;60.02
4570;BME280;2297;51.442;6.996;2023-07-20T02:15:56;100080.75;;;18.57;59.93
4570;BME280;2297;51.442;6.996;2023-07-20T02:18:23;100088.16;;;18.20;61.03
4570;BME280;2297;51.442;6.996;2023-07-20T02:20:52;100084.34;;;18.40;61.13
4570;BME280;2297;51.442;6.996;2023-07-20T02:23:20;100079.28;;;18.35;60.89
4570;BME280;2297;51.442;6.996;2023-07-20T02:25:47;100086.09;;;18.41;60.71
4570;BME280;2297;51.442;6.996;2023-07-20T02:28:14;100088.34;;;18.17;61.39
4570;BME280;2297;51.442;6.996;2023-07-20T02:30:41;100096.84;;;17.75;62.86
4570;BME280;2297;51.442;6.996;2023-07-20T02:33:07;100095.47;;;18.16;61.85
4570;BME280;2297;51.442;6.996;2023-07-20T02:35:34;100092.81;;;18.32;61.54
4570;BME280;2297;51.442;6.996;2023-07-20T02:38:00;100093.59;;;18.18;61.90
4570;BME280;2297;51.442;6.996;2023-07-20T02:40:28;100097.53;;;17.95;63.04
4570;BME280;2297;51.442;6.996;2023-07-20T02:42:55;100096.19;;;18.20;62.73
4570;BME280;2297;51.442;6.996;2023-07-20T02:45:22;100107.06;;;18.17;62.71
4570;BME280;2297;51.442;6.996;2023-07-20T02:47:49;100104.88;;;17.91;64.07
4570;BME280;2297;51.442;6.996;2023-07-20T02:50:15;100111.94;;;18.08;63.41
4570;BME280;2297;51.442;6.996;2023-07-20T02:52:42;100107.47;;;18.09;64.29
4570;BME280;2297;51.442;6.996;2023-07-20T02:55:09;100103.59;;;18.15;64.63
4570;BME280;2297;51.442;6.996;2023-07-20T02:57:37;100101.84;;;18.29;64.36
4570;BME280;2297;51.442;6.996;2023-07-20T03:00:04;100106.97;;;18.34;64.49
4570;BME280;2297;51.442;6.996;2023-07-20T03:02:32;100102.75;;;18.30;64.06
4570;BME280;2297;51.442;6.996;2023-07-20T03:04:58;100113.16;;;18.19;64.07
4570;BME280;2297;51.442;6.996;2023-07-20T03:07:27;100102.66;;;18.16;64.34
4570;BME280;2297;51.442;6.996;2023-07-20T03:09:54;100102.47;;;18.19;64.38
4570;BME280;2297;51.442;6.996;2023-07-20T03:12:21;100103.69;;;18.29;64.11
4570;BME280;2297;51.442;6.996;2023-07-20T03:14:49;100107.16;;;18.31;64.33
4570;BME280;2297;51.442;6.996;2023-07-20T03:17:16;100104.72;;;18.26;64.35
4570;BME280;2297;51.442;6.996;2023-07-20T03:19:43;100113.25;;;18.33;64.14
4570;BME280;2297;51.442;6.996;2023-07-20T03:22:09;100114.97;;;18.34;64.23
4570;BME280;2297;51.442;6.996;2023-07-20T03:24:36;100116.78;;;18.34;64.27
4570;BME280;2297;51.442;6.996;2023-07-20T03:27:03;100115.25;;;18.45;63.81
4570;BME280;2297;51.442;6.996;2023-07-20T03:29:31;100119.91;;;18.58;63.46
4570;BME280;2297;51.442;6.996;2023-07-20T03:31:59;100115.41;;;18.42;63.54
4570;BME280;2297;51.442;6.996;2023-07-20T03:34:26;100111.38;;;18.35;63.71
4570;BME280;2297;51.442;6.996;2023-07-20T03:36:53;100114.69;;;18.39;63.82
4570;BME280;2297;51.442;6.996;2023-07-20T03:39:19;100120.94;;;18.39;63.80
4570;BME280;2297;51.442;6.996;2023-07-20T03:41:46;100112.13;;;18.37;63.76
4570;BME280;2297;51.442;6.996;2023-07-20T03:44:13;100124.72;;;18.35;63.25
4570;BME280;2297;51.442;6.996;2023-07-20T03:46:39;100119.19;;;18.22;63.49
4570;BME280;2297;51.442;6.996;2023-07-20T03:49:07;100122.63;;;18.08;63.88
4570;BME280;2297;51.442;6.996;2023-07-20T03:51:35;100118.16;;;18.25;63.42
4570;BME280;2297;51.442;6.996;2023-07-20T03:54:02;100123.50;;;18.41;63.39
4570;BME280;2297;51.442;6.996;2023-07-20T03:56:28;100125.06;;;18.29;63.18
4570;BME280;2297;51.442;6.996;2023-07-20T03:58:59;100125.06;;;18.29;63.30
4570;BME280;2297;51.442;6.996;2023-07-20T04:01:26;100126.38;;;18.22;63.54
4570;BME280;2297;51.442;6.996;2023-07-20T04:03:52;100131.25;;;18.29;63.32
4570;BME280;2297;51.442;6.996;2023-07-20T04:06:20;100128.44;;;18.33;63.69
4570;BME280;2297;51.442;6.996;2023-07-20T04:08:47;100140.50;;;18.24;63.75
4570;BME280;2297;51.442;6.996;2023-07-20T04:11:14;100134.22;;;18.25;63.63
4570;BME280;2297;51.442;6.996;2023-07-20T04:13:47;100131.97;;;18.33;63.76
4570;BME280;2297;51.442;6.996;2023-07-20T04:16:13;100130.22;;;18.32;63.83
4570;BME280;2297;51.442;6.996;2023-07-20T04:18:40;100134.81;;;18.30;63.89
4570;BME280;2297;51.442;6.996;2023-07-20T04:21:07;100138.16;;;18.34;63.95
4570;BME280;2297;51.442;6.996;2023-07-20T04:23:36;100141.53;;;18.37;63.83
4570;BME280;2297;51.442;6.996;2023-07-20T04:26:02;100142.84;;;18.30;63.91
4570;BME280;2297;51.442;6.996;2023-07-20T04:28:29;100145.41;;;18.32;63.71
4570;BME280;2297;51.442;6.996;2023-07-20T04:31:09;100140.59;;;18.38;63.62
4570;BME280;2297;51.442;6.996;2023-07-20T04:33:36;100147.09;;;18.50;63.40
4570;BME280;2297;51.442;6.996;2023-07-20T04:36:03;100146.63;;;18.26;63.54
4570;BME280;2297;51.442;6.996;2023-07-20T04:38:29;100141.91;;;18.47;62.85
4570;BME280;2297;51.442;6.996;2023-07-20T04:40:57;100154.25;;;18.50;62.48
4570;BME280;2297;51.442;6.996;2023-07-20T04:43:24;100148.91;;;18.50;62.60
4570;BME280;2297;51.442;6.996;2023-07-20T04:45:51;100156.75;;;18.53;62.21
4570;BME280;2297;51.442;6.996;2023-07-20T04:48:17;100155.63;;;18.57;62.04
4570;BME280;2297;51.442;6.996;2023-07-20T04:50:45;100161.16;;;18.54;62.04
4570;BME280;2297;51.442;6.996;2023-07-20T04:53:12;100155.63;;;18.57;62.09
4570;BME280;2297;51.442;6.996;2023-07-20T04:55:40;100153.88;;;18.56;61.87
4570;BME280;2297;51.442;6.996;2023-07-20T04:58:08;100157.34;;;18.58;62.07
4570;BME280;2297;51.442;6.996;2023-07-20T05:00:37;100161.47;;;18.64;61.81
4570;BME280;2297;51.442;6.996;2023-07-20T05:03:04;100162.25;;;18.66;61.57
4570;BME280;2297;51.442;6.996;2023-07-20T05:05:31;100162.91;;;18.69;61.52
4570;BME280;2297;51.442;6.996;2023-07-20T05:07:58;100167.22;;;18.72;61.54
4570;BME280;2297;51.442;6.996;2023-07-20T05:10:25;100170.78;;;18.72;61.56
4570;BME280;2297;51.442;6.996;2023-07-20T05:13:08;100171.56;;;18.74;61.51
4570;BME280;2297;51.442;6.996;2023-07-20T05:15:35;100171.56;;;18.74;61.47
4570;BME280;2297;51.442;6.996;2023-07-20T05:18:02;100176.66;;;18.63;61.44
4570;BME280;2297;51.442;6.996;2023-07-20T05:20:28;100175.97;;;18.43;61.50
4570;BME280;2297;51.442;6.996;2023-07-20T05:22:57;100171.22;;;18.49;61.24
4570;BME280;2297;51.442;6.996;2023-07-20T05:25:23;100171.09;;;18.34;61.42
4570;BME280;2297;51.442;6.996;2023-07-20T05:27:51;100176.03;;;18.26;61.11
4570;BME280;2297;51.442;6.996;2023-07-20T05:30:19;100175.56;;;18.18;61.36
4570;BME280;2297;51.442;6.996;2023-07-20T05:32:46;100173.84;;;18.01;61.65
4570;BME280;2297;51.442;6.996;2023-07-20T05:35:16;100181.59;;;18.05;61.63
4570;BME280;2297;51.442;6.996;2023-07-20T05:37:43;100176.88;;;18.26;61.65
4570;BME280;2297;51.442;6.996;2023-07-20T05:40:10;100180.38;;;18.44;61.56
4570;BME280;2297;51.442;6.996;2023-07-20T05:42:38;100177.72;;;18.43;61.23
4570;BME280;2297;51.442;6.996;2023-07-20T05:45:05;100190.91;;;18.48;60.58
4570;BME280;2297;51.442;6.996;2023-07-20T05:47:34;100185.00;;;18.41;60.28
4570;BME280;2297;51.442;6.996;2023-07-20T05:50:00;100193.56;;;18.48;60.75
4570;BME280;2297;51.442;6.996;2023-07-20T05:52:27;100199.22;;;18.41;60.74
4570;BME280;2297;51.442;6.996;2023-07-20T05:54:53;100194.03;;;18.38;60.35
4570;BME280;2297;51.442;6.996;2023-07-20T05:57:20;100190.25;;;18.42;60.83
4570;BME280;2297;51.442;6.996;2023-07-20T05:59:47;100192.00;;;18.43;60.80
4570;BME280;2297;51.442;6.996;2023-07-20T06:02:13;100197.44;;;18.58;60.70
4570;BME280;2297;51.442;6.996;2023-07-20T06:04:41;100200.97;;;18.58;59.69
4570;BME280;2297;51.442;6.996;2023-07-20T06:07:08;100204.44;;;18.60;59.13
4570;BME280;2297;51.442;6.996;2023-07-20T06:09:34;100203.66;;;18.58;58.89
4570;BME280;2297;51.442;6.996;2023-07-20T06:12:01;100213.66;;;18.71;58.40
4570;BME280;2297;51.442;6.996;2023-07-20T06:14:28;100211.84;;;18.71;58.96
4570;BME280;2297;51.442;6.996;2023-07-20T06:16:55;100210.09;;;18.86;59.01
4570;BME280;2297;51.442;6.996;2023-07-20T06:19:21;100216.59;;;18.66;57.66
4570;BME280;2297;51.442;6.996;2023-07-20T06:21:50;100216.09;;;18.59;57.87
4570;BME280;2297;51.442;6.996;2023-07-20T06:24:16;100223.91;;;18.47;57.54
4570;BME280;2297;51.442;6.996;2023-07-20T06:26:43;100227.38;;;18.49;57.95
4570;BME280;2297;51.442;6.996;2023-07-20T06:29:10;100222.78;;;18.51;58.17
4570;BME280;2297;51.442;6.996;2023-07-20T06:31:36;100224.38;;;18.37;57.05
4570;BME280;2297;51.442;6.996;2023-07-20T06:34:03;100224.25;;;18.40;57.19
4570;BME280;2297;51.442;6.996;2023-07-20T06:36:30;100228.25;;;18.16;58.66
4570;BME280;2297;51.442;6.996;2023-07-20T06:38:58;100230.91;;;18.65;57.67
4570;BME280;2297;51.442;6.996;2023-07-20T06:41:24;100218.22;;;18.85;57.02
4570;BME280;2297;51.442;6.996;2023-07-20T06:43:51;100230.81;;;18.83;56.21
4570;BME280;2297;51.442;6.996;2023-07-20T06:46:23;100223.56;;;19.01;56.43
4570;BME280;2297;51.442;6.996;2023-07-20T06:48:50;100215.69;;;19.14;55.92
4570;BME280;2297;51.442;6.996;2023-07-20T06:51:16;100219.56;;;19.24;54.85
4570;BME280;2297;51.442;6.996;2023-07-20T06:53:43;100222.66;;;19.32;54.86
4570;BME280;2297;51.442;6.996;2023-07-20T06:56:11;100210.03;;;19.34;54.48
4570;BME280;2297;51.442;6.996;2023-07-20T06:58:38;100218.44;;;19.28;53.92
4570;BME280;2297;51.442;6.996;2023-07-20T07:01:05;100223.03;;;19.26;53.71
4570;BME280;2297;51.442;6.996;2023-07-20T07:03:32;100224.38;;;19.33;54.58
4570;BME280;2297;51.442;6.996;2023-07-20T07:05:59;100227.84;;;19.35;54.83
4570;BME280;2297;51.442;6.996;2023-07-20T07:08:25;100228.78;;;19.34;54.56
4570;BME280;2297;51.442;6.996;2023-07-20T07:10:52;100230.25;;;19.40;54.23
4570;BME280;2297;51.442;6.996;2023-07-20T07:13:21;100229.72;;;19.33;53.18
4570;BME280;2297;51.442;6.996;2023-07-20T07:15:48;100229.56;;;19.36;53.03
4570;BME280;2297;51.442;6.996;2023-07-20T07:18:14;100226.13;;;19.49;53.37
4570;BME280;2297;51.442;6.996;2023-07-20T07:20:41;100231.72;;;19.60;53.14
4570;BME280;2297;51.442;6.996;2023-07-20T07:23:07;100237.09;;;19.60;53.27
4570;BME280;2297;51.442;6.996;2023-07-20T07:25:34;100240.66;;;19.44;52.84
4570;BME280;2297;51.442;6.996;2023-07-20T07:28:01;100244.09;;;19.32;53.12
4570;BME280;2297;51.442;6.996;2023-07-20T07:30:29;100237.84;;;19.32;53.26
4570;BME280;2297;51.442;6.996;2023-07-20T07:32:55;100241.75;;;19.26;52.89
4570;BME280;2297;51.442;6.996;2023-07-20T07:35:22;100239.06;;;19.26;53.15
4570;BME280;2297;51.442;6.996;2023-07-20T07:37:49;100240.97;;;19.24;53.48
4570;BME280;2297;51.442;6.996;2023-07-20T07:40:15;100244.25;;;19.29;54.03
4570;BME280;2297;51.442;6.996;2023-07-20T07:42:42;100243.88;;;19.35;53.16
4570;BME280;2297;51.442;6.996;2023-07-20T07:45:09;100239.97;;;19.41;52.63
4570;BME280;2297;51.442;6.996;2023-07-20T07:47:37;100245.28;;;19.26;51.70
4570;BME280;2297;51.442;6.996;2023-07-20T07:50:05;100250.91;;;19.22;51.39
4570;BME280;2297;51.442;6.996;2023-07-20T07:52:32;100248.34;;;19.20;52.00
4570;BME280;2297;51.442;6.996;2023-07-20T07:54:58;100264.31;;;19.22;51.89
4570;BME280;2297;51.442;6.996;2023-07-20T07:57:25;100262.03;;;19.30;52.11
4570;BME280;2297;51.442;6.996;2023-07-20T07:59:52;100261.50;;;19.39;51.85
4570;BME280;2297;51.442;6.996;2023-07-20T08:02:18;100260.16;;;19.32;51.58
4570;BME280;2297;51.442;6.996;2023-07-20T08:04:46;100268.22;;;19.47;51.71
4570;BME280;2297;51.442;6.996;2023-07-20T08:07:13;100273.03;;;19.56;51.16
4570;BME280;2297;51.442;6.996;2023-07-20T08:09:39;100271.06;;;19.74;50.98
4570;BME280;2297;51.442;6.996;2023-07-20T08:12:07;100271.00;;;19.90;50.30
4570;BME280;2297;51.442;6.996;2023-07-20T08:14:34;100271.16;;;20.03;49.70
4570;BME280;2297;51.442;6.996;2023-07-20T08:17:00;100272.97;;;20.31;48.95
4570;BME280;2297;51.442;6.996;2023-07-20T08:19:27;100263.97;;;20.47;48.17
4570;BME280;2297;51.442;6.996;2023-07-20T08:22:14;100272.28;;;20.71;47.64
4570;BME280;2297;51.442;6.996;2023-07-20T08:24:41;100273.75;;;20.48;47.51
4570;BME280;2297;51.442;6.996;2023-07-20T08:27:08;100274.13;;;20.56;47.51
4570;BME280;2297;51.442;6.996;2023-07-20T08:29:35;100270.84;;;20.07;48.52
4570;BME280;2297;51.442;6.996;2023-07-20T08:32:02;100274.81;;;19.86;48.30
4570;BME280;2297;51.442;6.996;2023-07-20T08:34:29;100261.59;;;19.68;48.42
4570;BME280;2297;51.442;6.996;2023-07-20T08:36:56;100272.66;;;19.62;48.88
4570;BME280;2297;51.442;6.996;2023-07-20T08:39:25;100273.59;;;19.61;48.75
4570;BME280;2297;51.442;6.996;2023-07-20T08:41:51;100273.66;;;19.75;48.92
4570;BME280;2297;51.442;6.996;2023-07-20T08:44:18;100281.09;;;19.70;48.68
4570;BME280;2297;51.442;6.996;2023-07-20T08:46:47;100275.72;;;19.70;48.64
4570;BME280;2297;51.442;6.996;2023-07-20T08:49:15;100284.84;;;19.82;48.94
4570;BME280;2297;51.442;6.996;2023-07-20T08:52:10;100282.72;;;20.03;47.63
4570;BME280;2297;51.442;6.996;2023-07-20T08:54:39;100285.53;;;20.31;46.35
4570;BME280;2297;51.442;6.996;2023-07-20T08:57:06;100285.81;;;20.40;46.11
4570;BME280;2297;51.442;6.996;2023-07-20T08:59:37;100287.72;;;20.38;45.25
4570;BME280;2297;51.442;6.996;2023-07-20T09:02:05;100284.84;;;20.41;45.01
4570;BME280;2297;51.442;6.996;2023-07-20T09:04:33;100288.31;;;20.58;44.50
4570;BME280;2297;51.442;6.996;2023-07-20T09:07:01;100283.69;;;20.45;44.08
4570;BME280;2297;51.442;6.996;2023-07-20T09:09:28;100279.50;;;20.70;43.88
4570;BME280;2297;51.442;6.996;2023-07-20T09:11:56;100275.63;;;20.60;41.73
4570;BME280;2297;51.442;6.996;2023-07-20T09:14:23;100279.72;;;20.94;41.34
4570;BME280;2297;51.442;6.996;2023-07-20T09:16:52;100282.94;;;21.14;41.33
4570;BME280;2297;51.442;6.996;2023-07-20T09:19:20;100269.22;;;21.32;41.02
4570;BME280;2297;51.442;6.996;2023-07-20T09:21:47;100280.53;;;21.64;40.94
4570;BME280;2297;51.442;6.996;2023-07-20T09:24:15;100280.41;;;21.53;41.26
4570;BME280;2297;51.442;6.996;2023-07-20T09:26:43;100271.16;;;21.57;41.19
4570;BME280;2297;51.442;6.996;2023-07-20T09:29:11;100278.25;;;21.58;41.12
4570;BME280;2297;51.442;6.996;2023-07-20T09:31:38;100281.09;;;21.69;40.93
4570;BME280;2297;51.442;6.996;2023-07-20T09:34:05;100282.91;;;21.69;40.85
4570;BME280;2297;51.442;6.996;2023-07-20T09:36:33;100267.81;;;21.26;38.62
4570;BME280;2297;51.442;6.996;2023-07-20T09:39:00;100270.72;;;21.23;38.08
4570;BME280;2297;51.442;6.996;2023-07-20T09:41:27;100273.66;;;21.60;38.81
4570;BME280;2297;51.442;6.996;2023-07-20T09:43:54;100274.41;;;21.88;38.66
4570;BME280;2297;51.442;6.996;2023-07-20T09:46:22;100273.16;;;21.93;37.96
4570;BME280;2297;51.442;6.996;2023-07-20T09:48:51;100271.22;;;22.34;37.69
4570;BME280;2297;51.442;6.996;2023-07-20T09:51:19;100259.13;;;22.53;37.22
4570;BME280;2297;51.442;6.996;2023-07-20T09:53:47;100266.63;;;22.10;36.46
4570;BME280;2297;51.442;6.996;2023-07-20T09:56:16;100269.50;;;22.33;36.58
4570;BME280;2297;51.442;6.996;2023-07-20T09:58:45;100266.72;;;22.22;37.01
4570;BME280;2297;51.442;6.996;2023-07-20T10:01:13;100268.84;;;21.91;37.73
4570;BME280;2297;51.442;6.996;2023-07-20T10:03:45;100263.81;;;21.19;38.68
4570;BME280;2297;51.442;6.996;2023-07-20T10:06:15;100266.75;;;21.28;39.66
4570;BME280;2297;51.442;6.996;2023-07-20T10:08:47;100267.97;;;21.37;39.60
4570;BME280;2297;51.442;6.996;2023-07-20T10:11:15;100269.59;;;21.40;39.18
4570;BME280;2297;51.442;6.996;2023-07-20T10:13:43;100273.44;;;21.63;37.87
4570;BME280;2297;51.442;6.996;2023-07-20T10:16:12;100264.19;;;21.67;38.27
4570;BME280;2297;51.442;6.996;2023-07-20T10:18:49;100264.09;;;21.82;39.21
4570;BME280;2297;51.442;6.996;2023-07-20T10:21:17;100269.06;;;22.01;39.29
4570;BME280;2297;51.442;6.996;2023-07-20T10:23:45;100269.31;;;22.10;39.28
4570;BME280;2297;51.442;6.996;2023-07-20T10:26:12;100276.16;;;22.40;37.78
4570;BME280;2297;51.442;6.996;2023-07-20T10:28:39;100261.91;;;22.64;37.10
4570;BME280;2297;51.442;6.996;2023-07-20T10:31:07;100264.06;;;22.59;37.35
4570;BME280;2297;51.442;6.996;2023-07-20T10:33:35;100257.63;;;22.62;36.04
4570;BME280;2297;51.442;6.996;2023-07-20T10:36:04;100257.75;;;22.73;35.67
4570;BME280;2297;51.442;6.996;2023-07-20T10:38:41;100263.94;;;22.10;35.64
4570;BME280;2297;51.442;6.996;2023-07-20T10:41:18;100253.03;;;22.25;36.38
4570;BME280;2297;51.442;6.996;2023-07-20T10:43:46;100259.47;;;21.97;35.27
4570;BME280;2297;51.442;6.996;2023-07-20T10:46:13;100247.16;;;22.07;35.29
4570;BME280;2297;51.442;6.996;2023-07-20T10:48:59;100246.28;;;22.32;35.39
4570;BME280;2297;51.442;6.996;2023-07-20T10:51:28;100248.84;;;22.47;35.20
4570;BME280;2297;51.442;6.996;2023-07-20T10:53:55;100252.06;;;22.00;35.07
4570;BME280;2297;51.442;6.996;2023-07-20T10:56:26;100248.00;;;22.07;35.27
4570;BME280;2297;51.442;6.996;2023-07-20T10:58:56;100245.63;;;22.16;34.48
4570;BME280;2297;51.442;6.996;2023-07-20T11:01:27;100247.09;;;22.46;33.32
4570;BME280;2297;51.442;6.996;2023-07-20T11:03:57;100237.94;;;22.61;33.83
4570;BME280;2297;51.442;6.996;2023-07-20T11:06:33;100234.44;;;22.85;33.79
4570;BME280;2297;51.442;6.996;2023-07-20T11:09:06;100243.59;;;22.82;31.28
4570;BME280;2297;51.442;6.996;2023-07-20T11:11:36;100227.53;;;23.29;31.13
4570;BME280;2297;51.442;6.996;2023-07-20T11:14:06;100222.63;;;23.47;30.86
4570;BME280;2297;51.442;6.996;2023-07-20T11:16:36;100222.94;;;23.31;31.08
4570;BME280;2297;51.442;6.996;2023-07-20T11:19:04;100216.50;;;23.21;32.23
4570;BME280;2297;51.442;6.996;2023-07-20T11:21:36;100226.38;;;23.20;33.12
4570;BME280;2297;51.442;6.996;2023-07-20T11:24:05;100218.72;;;23.03;33.21
4570;BME280;2297;51.442;6.996;2023-07-20T11:26:40;100224.25;;;22.77;32.46
4570;BME280;2297;51.442;6.996;2023-07-20T11:29:06;100221.78;;;22.61;32.06
4570;BME280;2297;51.442;6.996;2023-07-20T11:31:35;100225.09;;;22.78;32.44
4570;BME280;2297;51.442;6.996;2023-07-20T11:34:02;100216.84;;;22.68;31.09
4570;BME280;2297;51.442;6.996;2023-07-20T11:36:29;100221.94;;;23.08;31.59
4570;BME280;2297;51.442;6.996;2023-07-20T11:38:58;100217.22;;;23.23;30.94
4570;BME280;2297;51.442;6.996;2023-07-20T11:41:25;100206.34;;;23.60;31.54
4570;BME280;2297;51.442;6.996;2023-07-20T11:43:52;100209.53;;;22.94;30.85
4570;BME280;2297;51.442;6.996;2023-07-20T11:46:18;100215.66;;;23.56;30.94
4570;BME280;2297;51.442;6.996;2023-07-20T11:48:45;100205.63;;;23.69;31.50
4570;BME280;2297;51.442;6.996;2023-07-20T11:51:15;100213.59;;;23.71;30.41
4570;BME280;2297;51.442;6.996;2023-07-20T11:53:43;100199.81;;;23.98;30.24
4570;BME280;2297;51.442;6.996;2023-07-20T11:56:12;100211.09;;;24.15;29.94
4570;BME280;2297;51.442;6.996;2023-07-20T11:58:42;100210.13;;;24.04;29.28
4570;BME280;2297;51.442;6.996;2023-07-20T12:01:09;100203.00;;;24.26;27.96
4570;BME280;2297;51.442;6.996;2023-07-20T12:03:36;100199.78;;;24.55;27.88
4570;BME280;2297;51.442;6.996;2023-07-20T12:06:06;100195.59;;;24.62;28.77
4570;BME280;2297;51.442;6.996;2023-07-20T12:08:33;100193.03;;;24.49;29.07
4570;BME280;2297;51.442;6.996;2023-07-20T12:11:00;100192.81;;;24.30;30.43
4570;BME280;2297;51.442;6.996;2023-07-20T12:13:37;100196.09;;;24.45;30.49
4570;BME280;2297;51.442;6.996;2023-07-20T12:16:09;100193.44;;;24.33;30.03
4570;BME280;2297;51.442;6.996;2023-07-20T12:18:36;100188.97;;;24.43;30.94
4570;BME280;2297;51.442;6.996;2023-07-20T12:21:03;100188.03;;;24.56;30.51
4570;BME280;2297;51.442;6.996;2023-07-20T12:23:35;100195.34;;;24.42;30.12
4570;BME280;2297;51.442;6.996;2023-07-20T12:26:03;100190.06;;;24.75;29.76
4570;BME280;2297;51.442;6.996;2023-07-20T12:28:32;100185.53;;;24.97;28.99
4570;BME280;2297;51.442;6.996;2023-07-20T12:31:00;100190.78;;;25.09;28.68
4570;BME280;2297;51.442;6.996;2023-07-20T12:33:26;100184.50;;;24.88;28.38
4570;BME280;2297;51.442;6.996;2023-07-20T12:35:53;100189.59;;;24.47;27.66
4570;BME280;2297;51.442;6.996;2023-07-20T12:38:21;100184.81;;;24.39;28.03
4570;BME280;2297;51.442;6.996;2023-07-20T12:40:48;100184.31;;;24.57;28.31
4570;BME280;2297;51.442;6.996;2023-07-20T12:43:31;100176.22;;;24.46;28.36
4570;BME280;2297;51.442;6.996;2023-07-20T12:45:59;100186.31;;;23.98;29.25
4570;BME280;2297;51.442;6.996;2023-07-20T12:48:26;100182.63;;;23.76;28.70
4570;BME280;2297;51.442;6.996;2023-07-20T12:50:53;100180.41;;;23.82;28.35
4570;BME280;2297;51.442;6.996;2023-07-20T12:53:20;100187.75;;;23.68;28.78
4570;BME280;2297;51.442;6.996;2023-07-20T12:55:47;100176.38;;;23.87;28.74
4570;BME280;2297;51.442;6.996;2023-07-20T12:58:13;100180.22;;;23.96;28.87
4570;BME280;2297;51.442;6.996;2023-07-20T13:00:40;100175.78;;;24.06;29.25
4570;BME280;2297;51.442;6.996;2023-07-20T13:03:08;100186.53;;;24.29;28.95
4570;BME280;2297;51.442;6.996;2023-07-20T13:05:35;100182.91;;;24.19;28.03
4570;BME280;2297;51.442;6.996;2023-07-20T13:08:02;100185.56;;;24.30;28.17
4570;BME280;2297;51.442;6.996;2023-07-20T13:10:29;100180.03;;;24.32;28.13
4570;BME280;2297;51.442;6.996;2023-07-20T13:12:56;100178.31;;;24.53;28.76
4570;BME280;2297;51.442;6.996;2023-07-20T13:15:29;100174.47;;;24.79;28.23